Marian Marie — A471180 — position and weather

sailwx.info

Track history (hours):
 
Tides and Currents Weather Stations Pressure Air Temp Water Temp Dewpoint Dewpoint Depression Visibility Wind Speed Wind Dir Waves Ship Positions

Marian Marie

Last reported at 2018-Jun-16 20:11 UTC. Time now 2018-Jun-24 05:18 UTC.
Position N 34°10' W 119°13'.

Length 12 m.

Type: Pleasure craft. MMSI: 338077538.

Date/timePositionNaut miles runAvg speedWind from/ knotsBaromVisibWave heightAir tempDewpointWater temp
2018-Jun-16 20:11N 34°10' W 119°13'0 0.5
2018-Jun-16 19:58N 34°10' W 119°13'4 7.9
2018-Jun-16 19:28N 34°11' W 119°18'1016.8
2018-Jun-16 18:53N 34°16' W 119°28'512.5
2018-Jun-16 18:29N 34°19' W 119°33'4 7.6
2018-Jun-16 18:00N 34°20' W 119°37'4 8.2
2018-Jun-16 17:29N 34°18' W 119°33'917.5
2018-Jun-16 16:57N 34°13' W 119°23'817.5
2018-Jun-16 16:29N 34°09' W 119°14'  
2018-Jun-09 20:07N 34°10' W 119°13'0 1.0
2018-Jun-09 20:00N 34°10' W 119°13'0 0.3
2018-Jun-09 19:28N 34°10' W 119°13'714.1
2018-Jun-09 19:00N 34°13' W 119°20'916.3
2018-Jun-09 18:26N 34°16' W 119°31'510.5
2018-Jun-09 17:58N 34°20' W 119°34'612.8
2018-Jun-09 17:29N 34°20' W 119°26'816.3
2018-Jun-09 16:58N 34°14' W 119°19'613.2
2018-Jun-09 16:30N 34°09' W 119°14'  
Track history (hours):
 
Tides and Currents Weather Stations Pressure Air Temp Water Temp Dewpoint Dewpoint Depression Visibility Wind Speed Wind Dir Waves Ship Positions

Marian Marie

Last reported at 2018-Jun-16 20:11 UTC. Time now 2018-Jun-24 05:18 UTC.
Position N 34°10' W 119°13'.

Length 12 m.

Type: Pleasure craft. MMSI: 338077538.

Date/timePositionNaut miles runAvg speedWind from/ knotsBaromVisibWave heightAir tempDewpointWater temp
2018-Jun-16 20:11N 34°10' W 119°13'0 0.5
2018-Jun-16 19:58N 34°10' W 119°13'4 7.9
2018-Jun-16 19:28N 34°11' W 119°18'1016.8
2018-Jun-16 18:53N 34°16' W 119°28'512.5
2018-Jun-16 18:29N 34°19' W 119°33'4 7.6
2018-Jun-16 18:00N 34°20' W 119°37'4 8.2
2018-Jun-16 17:29N 34°18' W 119°33'917.5
2018-Jun-16 16:57N 34°13' W 119°23'817.5
2018-Jun-16 16:29N 34°09' W 119°14'  
2018-Jun-09 20:07N 34°10' W 119°13'0 1.0
2018-Jun-09 20:00N 34°10' W 119°13'0 0.3
2018-Jun-09 19:28N 34°10' W 119°13'714.1
2018-Jun-09 19:00N 34°13' W 119°20'916.3
2018-Jun-09 18:26N 34°16' W 119°31'510.5
2018-Jun-09 17:58N 34°20' W 119°34'612.8
2018-Jun-09 17:29N 34°20' W 119°26'816.3
2018-Jun-09 16:58N 34°14' W 119°19'613.2
2018-Jun-09 16:30N 34°09' W 119°14'  

Dump ship's entire track history